createdAt,value
2019-04-20T00:01:12.636Z,11.20
2019-04-20T00:03:41.745Z,11.20
2019-04-20T00:06:06.940Z,11.20
2019-04-20T00:08:36.522Z,11.00
2019-04-20T00:11:10.599Z,11.10
2019-04-20T00:13:43.835Z,11.10
2019-04-20T00:16:00.216Z,11.10
2019-04-20T00:18:34.500Z,11.10
2019-04-20T00:21:03.876Z,11.10
2019-04-20T00:23:33.725Z,11.10
2019-04-20T00:26:15.779Z,11.10
2019-04-20T00:28:52.249Z,11.30
2019-04-20T00:31:22.479Z,11.10
2019-04-20T00:33:43.568Z,11.20
2019-04-20T00:36:01.125Z,11.00
2019-04-20T00:38:35.158Z,11.00
2019-04-20T00:41:02.689Z,10.90
2019-04-20T00:43:31.090Z,10.90
2019-04-20T00:46:04.641Z,11.00
2019-04-20T00:48:33.770Z,10.90
2019-04-20T00:51:06.914Z,10.90
2019-04-20T00:53:30.367Z,11.00
2019-04-20T00:55:49.258Z,11.00
2019-04-20T00:58:23.386Z,10.90
2019-04-20T01:01:09.495Z,10.90
2019-04-20T01:03:32.412Z,11.00
2019-04-20T01:05:59.753Z,10.90
2019-04-20T01:08:29.622Z,11.00
2019-04-20T01:10:58.195Z,11.00
2019-04-20T01:13:26.877Z,11.00
2019-04-20T01:15:58.922Z,11.00
2019-04-20T01:18:22.802Z,11.10
2019-04-20T01:20:49.575Z,11.00
2019-04-20T01:23:20.760Z,11.00
2019-04-20T01:25:47.031Z,11.00
2019-04-20T01:28:35.503Z,11.00
2019-04-20T01:30:50.858Z,11.00
2019-04-20T01:33:26.039Z,11.20
2019-04-20T01:35:57.132Z,11.00
2019-04-20T01:38:27.487Z,10.90
2019-04-20T01:40:38.121Z,10.90
2019-04-20T01:43:05.728Z,11.10
2019-04-20T01:45:37.703Z,11.10
2019-04-20T01:48:03.431Z,11.10
2019-04-20T01:50:33.651Z,11.20
2019-04-20T01:53:09.962Z,11.10
2019-04-20T01:55:57.201Z,11.10
2019-04-20T01:58:24.717Z,11.10
2019-04-20T02:00:44.025Z,11.10
2019-04-20T02:03:36.250Z,11.10
2019-04-20T02:06:08.397Z,11.10
2019-04-20T02:08:33.025Z,11.10
2019-04-20T02:11:02.675Z,11.20
2019-04-20T02:13:38.582Z,11.20
2019-04-20T02:16:04.892Z,11.20
2019-04-20T02:18:37.484Z,11.20
2019-04-20T02:21:16.582Z,11.30
2019-04-20T02:23:33.809Z,11.20
2019-04-20T02:25:52.817Z,11.30
2019-04-20T02:28:37.414Z,11.30
2019-04-20T02:31:24.319Z,11.30
2019-04-20T02:34:07.331Z,11.40
2019-04-20T02:36:45.766Z,11.40
2019-04-20T02:41:44.257Z,11.50
2019-04-20T02:44:16.072Z,11.40
2019-04-20T02:46:45.317Z,11.60
2019-04-20T02:49:29.703Z,11.60
2019-04-20T02:51:42.182Z,11.60
2019-04-20T02:54:16.983Z,11.70
2019-04-20T02:56:45.374Z,11.70
2019-04-20T02:59:31.639Z,11.70
2019-04-20T03:01:27.724Z,11.80
2019-04-20T03:03:42.757Z,11.80
2019-04-20T03:06:17.876Z,11.80
2019-04-20T03:08:58.872Z,11.80
2019-04-20T03:11:22.506Z,11.90
2019-04-20T03:13:53.154Z,11.80
2019-04-20T03:16:16.692Z,11.80
2019-04-20T03:18:45.548Z,11.80
2019-04-20T03:21:17.718Z,11.90
2019-04-20T03:23:54.266Z,11.80
2019-04-20T03:26:29.367Z,11.70
2019-04-20T03:28:56.687Z,11.70
2019-04-20T03:32:03.771Z,11.70
2019-04-20T03:34:51.609Z,11.60
2019-04-20T03:36:42.884Z,11.60
2019-04-20T03:39:03.977Z,11.60
2019-04-20T03:41:22.444Z,11.50
2019-04-20T03:43:41.706Z,11.60
2019-04-20T03:46:12.754Z,11.50
2019-04-20T03:48:57.189Z,11.50
2019-04-20T03:51:37.423Z,11.50
2019-04-20T03:54:08.573Z,11.50
2019-04-20T03:56:39.030Z,11.40
2019-04-20T03:59:20.789Z,11.40
2019-04-20T04:04:49.628Z,11.50
2019-04-20T04:07:01.278Z,11.40
2019-04-20T04:09:35.439Z,11.50
2019-04-20T04:12:25.395Z,11.50
2019-04-20T04:14:45.095Z,11.50
2019-04-20T04:17:13.293Z,11.50
2019-04-20T04:19:52.435Z,11.40
2019-04-20T04:22:21.114Z,11.50
2019-04-20T04:24:54.272Z,11.50
2019-04-20T04:27:28.485Z,11.50
2019-04-20T04:29:51.219Z,11.50
2019-04-20T04:32:33.276Z,11.60
2019-04-20T04:34:48.668Z,11.60
2019-04-20T04:37:20.541Z,11.60
2019-04-20T04:39:48.503Z,11.60
2019-04-20T04:42:22.646Z,11.60
2019-04-20T04:44:41.734Z,11.50
2019-04-20T04:47:00.207Z,11.50
2019-04-20T04:49:32.027Z,11.60
2019-04-20T04:52:01.083Z,11.60
2019-04-20T04:54:33.994Z,11.50
2019-04-20T04:56:52.603Z,11.50
2019-04-20T04:59:19.673Z,11.40
2019-04-20T05:01:51.453Z,11.30
2019-04-20T05:04:44.064Z,11.40
2019-04-20T05:06:58.215Z,11.40
2019-04-20T05:09:16.758Z,11.40
2019-04-20T05:11:43.178Z,11.40
2019-04-20T05:14:16.835Z,11.40
2019-04-20T05:16:55.555Z,11.30
2019-04-20T05:19:31.195Z,11.40
2019-04-20T05:22:08.215Z,11.30
2019-04-20T05:24:28.843Z,11.20
2019-04-20T05:27:14.655Z,11.30
2019-04-20T05:29:24.905Z,11.30
2019-04-20T05:31:53.854Z,11.30
2019-04-20T05:34:38.760Z,11.30
2019-04-20T05:37:04.700Z,11.20
2019-04-20T05:39:52.747Z,11.30
2019-04-20T05:41:57.177Z,11.20
2019-04-20T05:44:25.571Z,11.20
2019-04-20T05:47:01.324Z,11.20
2019-04-20T05:49:25.807Z,11.20
2019-04-20T05:51:54.420Z,11.20
2019-04-20T05:54:26.774Z,11.20
2019-04-20T05:56:56.306Z,11.20
2019-04-20T05:59:23.836Z,11.20
2019-04-20T06:02:01.993Z,11.20
2019-04-20T06:04:30.217Z,11.20
2019-04-20T06:06:49.371Z,11.10
2019-04-20T06:09:22.979Z,11.20
2019-04-20T06:11:59.076Z,11.20
2019-04-20T06:14:10.409Z,11.20
2019-04-20T06:16:56.837Z,11.30
2019-04-20T06:19:25.828Z,11.20
2019-04-20T06:21:57.658Z,11.20
2019-04-20T06:24:29.304Z,11.30
2019-04-20T06:27:00.231Z,11.20
2019-04-20T06:29:23.638Z,11.30
2019-04-20T06:31:51.808Z,11.40
2019-04-20T06:39:48.767Z,11.40
2019-04-20T06:42:18.118Z,11.50
2019-04-20T06:44:32.129Z,11.50
2019-04-20T06:52:04.538Z,11.70
2019-04-20T06:54:33.865Z,11.70
2019-04-20T06:57:07.113Z,11.70
2019-04-20T06:59:38.728Z,11.80
2019-04-20T07:02:11.542Z,11.80
2019-04-20T07:04:50.705Z,11.80
2019-04-20T07:07:03.718Z,11.80
2019-04-20T07:09:39.644Z,11.90
2019-04-20T07:11:56.817Z,12.00
2019-04-20T07:14:11.388Z,12.00
2019-04-20T07:16:54.404Z,12.00
2019-04-20T07:19:25.336Z,12.10
2019-04-20T07:24:43.161Z,12.10
2019-04-20T07:27:08.078Z,12.20
2019-04-20T07:29:40.674Z,12.20
2019-04-20T07:31:57.633Z,12.30
2019-04-20T07:34:33.714Z,12.20
2019-04-20T07:37:28.249Z,12.30
2019-04-20T07:39:32.986Z,12.30
2019-04-20T07:42:08.143Z,12.30
2019-04-20T07:44:35.972Z,12.30
2019-04-20T07:49:24.689Z,12.30
2019-04-20T07:51:40.062Z,12.30
2019-04-20T07:54:31.146Z,12.30
2019-04-20T07:56:53.806Z,12.30
2019-04-20T07:59:13.030Z,12.40
2019-04-20T08:02:00.811Z,12.40
2019-04-20T08:04:27.314Z,12.40
2019-04-20T08:06:47.039Z,12.40
2019-04-20T08:09:21.989Z,12.40
2019-04-20T08:12:03.238Z,12.50
2019-04-20T08:14:35.085Z,12.50
2019-04-20T08:17:13.808Z,12.50
2019-04-20T08:19:22.754Z,12.50
2019-04-20T08:21:53.028Z,12.50
2019-04-20T08:24:17.597Z,12.60
2019-04-20T08:26:38.377Z,12.60
2019-04-20T08:29:09.168Z,12.70
2019-04-20T08:31:49.073Z,12.70
2019-04-20T08:34:43.919Z,12.80
2019-04-20T08:37:08.478Z,12.80
2019-04-20T08:39:45.992Z,12.90
2019-04-20T08:42:05.834Z,12.80
2019-04-20T08:44:56.638Z,13.00
2019-04-20T08:47:14.494Z,13.00
2019-04-20T08:49:34.817Z,13.00
2019-04-20T08:52:19.939Z,13.10
2019-04-20T08:54:27.290Z,13.10
2019-04-20T08:56:44.830Z,13.10
2019-04-20T08:59:06.846Z,13.20
2019-04-20T09:01:35.724Z,13.20
2019-04-20T09:04:11.266Z,13.20
2019-04-20T09:06:45.737Z,13.30
2019-04-20T09:09:31.840Z,13.20
2019-04-20T09:11:49.560Z,13.40
2019-04-20T09:14:01.867Z,13.30
2019-04-20T09:16:38.067Z,13.40
2019-04-20T09:19:03.596Z,13.50
2019-04-20T09:21:36.661Z,13.50
2019-04-20T09:24:22.814Z,13.70
2019-04-20T09:26:44.649Z,13.80
2019-04-20T09:29:04.096Z,13.90
2019-04-20T09:31:40.933Z,14.00
2019-04-20T09:34:16.109Z,14.00
2019-04-20T09:36:47.184Z,14.10
2019-04-20T09:39:15.017Z,14.20
2019-04-20T09:41:58.959Z,14.20
2019-04-20T09:44:07.233Z,14.30
2019-04-20T09:46:42.470Z,14.40
2019-04-20T09:49:15.691Z,14.50
2019-04-20T09:51:51.163Z,14.50
2019-04-20T09:54:21.983Z,14.60
2019-04-20T09:56:48.457Z,14.60
2019-04-20T09:59:16.643Z,14.80
2019-04-20T10:01:37.661Z,14.90
2019-04-20T10:03:57.075Z,15.00
2019-04-20T10:06:29.637Z,15.10
2019-04-20T10:08:56.816Z,15.10
2019-04-20T10:11:21.813Z,15.20
2019-04-20T10:13:49.901Z,15.10
2019-04-20T10:16:17.751Z,15.30
2019-04-20T10:18:48.806Z,15.20
2019-04-20T10:21:13.811Z,15.30
2019-04-20T10:23:40.988Z,15.40
2019-04-20T10:26:08.918Z,15.40
2019-04-20T10:28:37.263Z,15.40
2019-04-20T10:31:04.372Z,15.40
2019-04-20T10:33:31.432Z,15.40
2019-04-20T10:35:59.469Z,15.40
2019-04-20T10:38:33.993Z,15.40
2019-04-20T10:41:08.175Z,15.40
2019-04-20T10:43:28.154Z,15.40
2019-04-20T10:45:55.118Z,15.50
2019-04-20T10:48:23.407Z,15.40
2019-04-20T10:50:50.327Z,15.40
2019-04-20T10:53:17.577Z,15.50
2019-04-20T10:55:45.270Z,15.60
2019-04-20T10:58:13.508Z,15.70
2019-04-20T11:00:44.055Z,15.80
2019-04-20T11:03:13.592Z,15.90
2019-04-20T11:05:42.630Z,16.00
2019-04-20T11:08:10.798Z,16.20
2019-04-20T11:10:50.827Z,16.30
2019-04-20T11:13:09.625Z,16.40
2019-04-20T11:15:36.693Z,16.50
2019-04-20T11:18:04.278Z,16.60
2019-04-20T11:20:31.440Z,16.60
2019-04-20T11:22:58.228Z,16.70
2019-04-20T11:25:26.177Z,16.60
2019-04-20T11:27:54.253Z,16.80
2019-04-20T11:30:22.511Z,16.70
2019-04-20T11:32:49.846Z,16.60
2019-04-20T11:35:25.477Z,16.80
2019-04-20T11:37:47.045Z,16.80
2019-04-20T11:40:15.047Z,16.90
2019-04-20T11:42:41.946Z,16.70
2019-04-20T11:45:10.905Z,16.80
2019-04-20T11:47:39.694Z,16.80
2019-04-20T11:50:09.444Z,16.80
2019-04-20T11:52:42.242Z,16.80
2019-04-20T11:55:08.588Z,16.90
2019-04-20T11:57:35.625Z,16.90
2019-04-20T12:00:09.318Z,17.00
2019-04-20T12:02:57.242Z,17.10
2019-04-20T12:05:32.445Z,17.20
2019-04-20T12:07:58.580Z,17.30
2019-04-20T12:10:27.787Z,17.40
2019-04-20T12:12:55.700Z,17.60
2019-04-20T12:15:22.726Z,17.70
2019-04-20T12:17:49.575Z,17.80
2019-04-20T12:20:16.801Z,17.80
2019-04-20T12:22:44.269Z,18.00
2019-04-20T12:25:12.078Z,18.10
2019-04-20T12:27:42.019Z,18.40
2019-04-20T12:30:12.097Z,18.50
2019-04-20T12:32:42.862Z,18.60
2019-04-20T12:35:09.914Z,18.40
2019-04-20T12:37:36.932Z,18.90
2019-04-20T12:40:09.644Z,19.00
2019-04-20T12:42:37.084Z,19.20
2019-04-20T12:45:11.506Z,19.10
2019-04-20T12:47:39.633Z,19.20
2019-04-20T12:50:09.731Z,19.20
2019-04-20T12:52:36.801Z,19.40
2019-04-20T12:55:08.400Z,19.30
2019-04-20T12:57:36.528Z,19.20
2019-04-20T13:00:11.933Z,19.20
2019-04-20T13:02:39.191Z,19.20
2019-04-20T13:05:09.083Z,19.20
2019-04-20T13:07:44.390Z,19.30
2019-04-20T13:10:11.483Z,19.50
2019-04-20T13:12:58.458Z,19.40
2019-04-20T13:15:26.647Z,19.50
2019-04-20T13:17:54.271Z,19.70
2019-04-20T13:20:21.741Z,19.80
2019-04-20T13:22:48.801Z,20.00
2019-04-20T13:25:16.978Z,20.20
2019-04-20T13:27:45.049Z,20.40
2019-04-20T13:30:14.261Z,20.70
2019-04-20T13:32:41.608Z,21.00
2019-04-20T13:35:10.045Z,21.40
2019-04-20T13:37:39.975Z,21.80
2019-04-20T13:40:07.053Z,22.10
2019-04-20T13:42:35.210Z,22.50
2019-04-20T13:45:06.727Z,22.30
2019-04-20T13:47:34.935Z,22.70
2019-04-20T13:50:05.196Z,22.90
2019-04-20T13:52:33.070Z,22.80
2019-04-20T13:55:00.075Z,22.60
2019-04-20T13:57:46.129Z,22.70
2019-04-20T14:00:20.415Z,22.30
2019-04-20T14:02:49.400Z,22.20
2019-04-20T14:05:18.004Z,22.10
2019-04-20T14:07:45.201Z,22.00
2019-04-20T14:10:13.462Z,22.00
2019-04-20T14:12:54.776Z,22.10
2019-04-20T14:15:09.351Z,22.00
2019-04-20T14:17:37.222Z,22.10
2019-04-20T14:20:11.381Z,22.00
2019-04-20T14:22:33.950Z,21.90
2019-04-20T14:25:01.102Z,21.70
2019-04-20T14:27:28.863Z,21.70
2019-04-20T14:29:57.122Z,22.00
2019-04-20T14:32:25.013Z,22.20
2019-04-20T14:34:53.236Z,22.60
2019-04-20T14:37:23.135Z,23.00
2019-04-20T14:39:50.279Z,23.40
2019-04-20T14:42:26.925Z,23.70
2019-04-20T14:44:46.273Z,23.90
2019-04-20T14:47:13.880Z,24.00
2019-04-20T14:49:41.195Z,23.90
2019-04-20T14:52:08.269Z,23.70
2019-04-20T14:54:35.515Z,23.50
2019-04-20T14:57:03.415Z,23.20
2019-04-20T14:59:32.105Z,23.00
2019-04-20T15:02:03.707Z,23.10
2019-04-20T15:04:32.006Z,23.40
2019-04-20T15:07:00.187Z,23.60
2019-04-20T15:09:28.792Z,23.40
2019-04-20T15:11:56.951Z,23.70
2019-04-20T15:14:24.878Z,23.90
2019-04-20T15:16:52.887Z,24.40
2019-04-20T15:19:23.305Z,24.80
2019-04-20T15:21:55.713Z,25.10
2019-04-20T15:24:23.764Z,25.10
2019-04-20T15:26:52.088Z,25.30
2019-04-20T15:29:20.177Z,25.20
2019-04-20T15:31:48.171Z,25.30
2019-04-20T15:34:15.293Z,25.30
2019-04-20T15:36:42.308Z,24.90
2019-04-20T15:39:09.496Z,24.40
2019-04-20T15:41:36.676Z,24.10
2019-04-20T15:44:04.366Z,23.80
2019-04-20T15:46:32.727Z,23.40
2019-04-20T15:48:59.900Z,23.20
2019-04-20T15:51:27.974Z,22.70
2019-04-20T15:53:55.634Z,22.00
2019-04-20T15:56:22.788Z,22.00
2019-04-20T15:58:50.429Z,22.30
2019-04-20T16:01:20.661Z,22.70
2019-04-20T16:03:47.749Z,23.10
2019-04-20T16:06:14.558Z,23.40
2019-04-20T16:08:42.402Z,23.70
2019-04-20T16:11:11.125Z,24.00
2019-04-20T16:13:43.848Z,23.80
2019-04-20T16:16:07.848Z,23.70
2019-04-20T16:18:35.092Z,23.50
2019-04-20T16:21:07.944Z,23.10
2019-04-20T16:23:34.580Z,23.10
2019-04-20T16:26:11.149Z,22.40
2019-04-20T16:28:39.477Z,22.20
2019-04-20T16:31:08.723Z,21.90
2019-04-20T16:33:36.604Z,21.50
2019-04-20T16:36:04.769Z,21.60
2019-04-20T16:38:33.043Z,21.30
2019-04-20T16:41:00.455Z,20.90
2019-04-20T16:43:35.024Z,20.70
2019-04-20T16:45:57.096Z,20.50
2019-04-20T16:48:24.360Z,20.30
2019-04-20T16:50:51.199Z,20.10
2019-04-20T16:53:19.068Z,20.00
2019-04-20T16:55:46.232Z,19.90
2019-04-20T16:58:13.439Z,19.70
2019-04-20T17:00:41.240Z,19.70
2019-04-20T17:03:09.120Z,19.60
2019-04-20T17:05:37.026Z,19.40
2019-04-20T17:08:04.912Z,19.50
2019-04-20T17:10:33.213Z,19.30
2019-04-20T17:13:00.125Z,19.10
2019-04-20T17:15:27.679Z,19.10
2019-04-20T17:17:58.595Z,19.00
2019-04-20T17:20:27.282Z,18.90
2019-04-20T17:22:56.110Z,19.00
2019-04-20T17:25:23.981Z,18.90
2019-04-20T17:27:59.449Z,18.90
2019-04-20T17:30:29.449Z,18.80
2019-04-20T17:33:08.317Z,18.80
2019-04-20T17:35:47.811Z,18.70
2019-04-20T17:38:04.773Z,18.60
2019-04-20T17:40:51.212Z,18.60
2019-04-20T17:43:10.562Z,18.50
2019-04-20T17:45:41.974Z,18.60
2019-04-20T17:48:14.671Z,18.60
2019-04-20T17:50:46.436Z,18.60
2019-04-20T17:53:12.555Z,18.60
2019-04-20T17:55:40.953Z,18.50
2019-04-20T17:58:05.667Z,18.60
2019-04-20T18:00:53.197Z,18.40
2019-04-20T18:04:00.323Z,18.30
2019-04-20T18:06:14.570Z,18.20
2019-04-20T18:08:44.028Z,18.20
2019-04-20T18:10:59.827Z,18.10
2019-04-20T18:13:23.623Z,18.00
2019-04-20T18:16:04.660Z,17.90
2019-04-20T18:18:35.317Z,17.80
2019-04-20T18:21:06.364Z,17.70
2019-04-20T18:23:38.504Z,17.70
2019-04-20T18:26:25.918Z,17.50
2019-04-20T18:28:55.740Z,17.50
2019-04-20T18:31:15.372Z,17.40
2019-04-20T18:33:44.511Z,17.40
2019-04-20T18:36:19.610Z,17.20
2019-04-20T18:38:51.504Z,17.10
2019-04-20T18:41:24.410Z,17.10
2019-04-20T18:43:45.825Z,17.00
2019-04-20T18:46:21.712Z,17.00
2019-04-20T18:48:57.019Z,16.90
2019-04-20T18:51:04.116Z,16.90
2019-04-20T18:53:38.749Z,16.80
2019-04-20T18:56:02.663Z,16.80
2019-04-20T18:58:28.973Z,16.90
2019-04-20T19:00:57.095Z,16.90
2019-04-20T19:03:31.173Z,16.90
2019-04-20T19:05:53.687Z,16.80
2019-04-20T19:08:32.389Z,16.80
2019-04-20T19:10:57.879Z,16.70
2019-04-20T19:13:36.323Z,16.70
2019-04-20T19:16:15.196Z,16.60
2019-04-20T19:19:00.578Z,16.40
2019-04-20T19:21:17.627Z,16.50
2019-04-20T19:23:54.872Z,16.40
2019-04-20T19:26:19.140Z,16.40
2019-04-20T19:28:49.406Z,16.30
2019-04-20T19:31:25.289Z,16.00
2019-04-20T19:34:00.503Z,15.80
2019-04-20T19:36:19.872Z,15.60
2019-04-20T19:38:52.374Z,15.50
2019-04-20T19:41:22.545Z,15.40
2019-04-20T19:43:48.349Z,15.40
2019-04-20T19:46:39.271Z,15.30
2019-04-20T19:48:45.146Z,15.20
2019-04-20T19:51:25.497Z,15.10
2019-04-20T19:53:53.122Z,15.00
2019-04-20T19:56:10.664Z,14.90
2019-04-20T19:58:39.710Z,14.90
2019-04-20T20:01:01.149Z,14.90
2019-04-20T20:03:27.943Z,14.90
2019-04-20T20:05:56.499Z,14.80
2019-04-20T20:08:27.816Z,14.80
2019-04-20T20:10:52.733Z,14.90
2019-04-20T20:13:20.466Z,15.00
2019-04-20T20:15:49.084Z,14.90
2019-04-20T20:18:33.200Z,15.00
2019-04-20T20:20:59.582Z,15.00
2019-04-20T20:23:14.453Z,14.80
2019-04-20T20:25:45.922Z,14.70
2019-04-20T20:28:20.263Z,14.60
2019-04-20T20:30:55.592Z,14.60
2019-04-20T20:33:27.904Z,14.60
2019-04-20T20:35:49.163Z,14.60
2019-04-20T20:38:18.111Z,14.60
2019-04-20T20:40:43.515Z,14.50
2019-04-20T20:43:14.836Z,14.40
2019-04-20T20:45:41.691Z,14.50
2019-04-20T20:48:22.787Z,14.40
2019-04-20T20:50:50.916Z,14.40
2019-04-20T20:53:13.496Z,14.40
2019-04-20T20:55:37.068Z,14.20
2019-04-20T20:58:08.529Z,14.30
2019-04-20T21:00:37.264Z,14.20
2019-04-20T21:03:02.566Z,14.20
2019-04-20T21:05:25.330Z,14.20
2019-04-20T21:07:53.324Z,14.10
2019-04-20T21:10:28.109Z,13.90
2019-04-20T21:12:55.497Z,13.80
2019-04-20T21:15:22.542Z,13.70
2019-04-20T21:18:09.502Z,13.60
2019-04-20T21:20:39.513Z,13.50
2019-04-20T21:23:03.922Z,13.50
2019-04-20T21:25:37.763Z,13.30
2019-04-20T21:28:02.567Z,13.30
2019-04-20T21:30:35.058Z,13.10
2019-04-20T21:33:03.831Z,13.10
2019-04-20T21:35:38.202Z,13.20
2019-04-20T21:38:06.190Z,13.10
2019-04-20T21:40:36.224Z,13.00
2019-04-20T21:43:02.318Z,13.00
2019-04-20T21:45:31.148Z,12.90
2019-04-20T21:47:56.598Z,12.90
2019-04-20T21:50:37.040Z,12.10
2019-04-20T21:52:58.603Z,12.70
2019-04-20T21:55:21.794Z,12.70
2019-04-20T21:57:53.244Z,12.70
2019-04-20T22:00:42.634Z,12.70
2019-04-20T22:03:10.932Z,12.70
2019-04-20T22:05:35.928Z,12.70
2019-04-20T22:08:07.839Z,12.70
2019-04-20T22:10:32.956Z,12.60
2019-04-20T22:13:01.413Z,12.70
2019-04-20T22:15:33.239Z,12.60
2019-04-20T22:18:05.141Z,12.70
2019-04-20T22:20:35.156Z,12.70
2019-04-20T22:23:06.596Z,12.30
2019-04-20T22:25:42.565Z,12.70
2019-04-20T22:27:55.657Z,12.60
2019-04-20T22:30:22.152Z,12.80
2019-04-20T22:32:51.830Z,12.70
2019-04-20T22:35:19.602Z,12.70
2019-04-20T22:37:59.780Z,12.80
2019-04-20T22:40:31.577Z,12.80
2019-04-20T22:42:58.539Z,12.80
2019-04-20T22:45:25.318Z,12.70
2019-04-20T22:47:59.388Z,12.60
2019-04-20T22:50:34.220Z,12.60
2019-04-20T22:52:58.079Z,12.50
2019-04-20T22:55:42.722Z,13.20
2019-04-20T22:57:59.130Z,12.40
2019-04-20T23:00:29.067Z,12.30
2019-04-20T23:02:46.946Z,12.20
2019-04-20T23:05:15.163Z,12.20
2019-04-20T23:07:42.045Z,12.10
2019-04-20T23:10:09.433Z,12.10
2019-04-20T23:12:41.126Z,12.10
2019-04-20T23:15:08.202Z,12.10
2019-04-20T23:17:40.025Z,11.90
2019-04-20T23:20:13.177Z,12.00
2019-04-20T23:22:40.149Z,12.10
2019-04-20T23:25:05.072Z,12.10
2019-04-20T23:27:34.940Z,12.10
2019-04-20T23:30:05.895Z,12.10
2019-04-20T23:32:30.314Z,12.00
2019-04-20T23:35:06.606Z,11.90
2019-04-20T23:37:32.088Z,11.80
2019-04-20T23:39:57.933Z,11.80
2019-04-20T23:42:27.936Z,11.80
2019-04-20T23:45:00.097Z,11.70
2019-04-20T23:47:30.064Z,11.70
2019-04-20T23:50:15.177Z,11.80
2019-04-20T23:52:49.655Z,11.70
2019-04-20T23:55:04.980Z,11.80
2019-04-20T23:57:27.816Z,11.80
2019-04-20T23:59:55.059Z,11.70
